Time;durP1;ratioP1;P1;durP2;ratioP2;P2;SDS_P1;SDS_P2;PMS_P1;PMS_P2;Temp;Humidity;BMP_temperature;BMP_pressure;BME280_temperature;BME280_humidity;BME280_pressure;Samples;Min_cycle;Max_cycle;Signal;HPM_P1;HPM_P2
2024/03/05 00:00:11;;;;;;;41.35;19.88;;;;;;;8.43;100.00;100035.63;4964514;28;20050;-71
2024/03/05 00:02:43;;;;;;;41.65;20.67;;;;;;;8.41;100.00;100037.50;4985732;28;20050;-71
2024/03/05 00:05:14;;;;;;;42.63;21.88;;;;;;;8.42;100.00;100040.06;4967421;28;20054;-72
2024/03/05 00:07:43;;;;;;;43.30;20.88;;;;;;;8.40;100.00;100030.50;4996719;28;20091;-71
2024/03/05 00:10:11;;;;;;;39.25;20.00;;;;;;;8.43;100.00;100033.88;4987051;28;20105;-70
2024/03/05 00:12:39;;;;;;;43.35;21.35;;;;;;;8.44;100.00;100026.81;5003802;28;20045;-72
2024/03/05 00:15:08;;;;;;;40.03;20.75;;;;;;;8.43;100.00;100035.63;4984139;28;20039;-72
2024/03/05 00:17:38;;;;;;;41.38;20.02;;;;;;;8.41;100.00;100030.44;4997861;28;20042;-72
2024/03/05 00:20:13;;;;;;;41.60;21.77;;;;;;;8.40;100.00;100036.63;4958233;28;20057;-72
2024/03/05 00:22:42;;;;;;;43.50;21.52;;;;;;;8.40;100.00;100031.34;4953571;28;20047;-71
2024/03/05 00:25:11;;;;;;;46.60;22.50;;;;;;;8.43;100.00;100025.94;4944467;28;20047;-71
2024/03/05 00:27:40;;;;;;;40.17;20.80;;;;;;;8.42;100.00;100031.28;4966912;28;20064;-73
2024/03/05 00:30:10;;;;;;;44.17;20.83;;;;;;;8.39;100.00;100032.28;4968874;28;20088;-72
2024/03/05 00:32:38;;;;;;;45.40;21.25;;;;;;;8.41;100.00;100030.44;4970945;28;20344;-72
2024/03/05 00:35:08;;;;;;;43.28;21.52;;;;;;;8.42;100.00;100024.22;4959272;28;20039;-72
2024/03/05 00:37:37;;;;;;;45.13;21.83;;;;;;;8.41;100.00;100025.16;4974383;28;20372;-71
2024/03/05 00:40:09;;;;;;;47.20;22.10;;;;;;;8.41;100.00;100027.78;4976784;28;20122;-72
2024/03/05 00:42:40;;;;;;;48.05;23.67;;;;;;;8.41;100.00;100029.56;4967507;28;20142;-73
2024/03/05 00:45:10;;;;;;;46.10;22.02;;;;;;;8.40;100.00;100026.06;4983875;28;20050;-71
2024/03/05 00:47:38;;;;;;;;;;;;;;;8.41;100.00;100026.94;4963512;28;20523;-72
2024/03/05 00:50:08;;;;;;;46.45;22.45;;;;;;;8.27;100.00;99995.00;4956252;28;20299;-70
2024/03/05 00:52:37;;;;;;;47.22;22.63;;;;;;;8.43;100.00;100025.09;4967024;28;20061;-70
2024/03/05 00:55:11;;;;;;;44.22;22.42;;;;;;;8.43;100.00;100025.09;4968418;28;20043;-71
2024/03/05 00:57:39;;;;;;;43.88;21.27;;;;;;;8.44;100.00;100027.66;4988598;28;20081;-72
2024/03/05 01:00:13;;;;;;;43.35;20.90;;;;;;;8.47;100.00;100023.19;4987079;28;20077;-71
2024/03/05 01:02:42;;;;;;;41.08;20.98;;;;;;;8.51;100.00;100019.47;4985689;28;20073;-72
2024/03/05 01:05:10;;;;;;;47.58;23.30;;;;;;;8.51;100.00;100022.94;4985653;28;20046;-72
2024/03/05 01:07:40;;;;;;;51.70;23.70;;;;;;;8.49;100.00;100013.41;4987209;28;21441;-73
2024/03/05 01:10:10;;;;;;;46.30;23.35;;;;;;;8.42;100.00;100003.13;4983613;28;20057;-73
2024/03/05 01:12:40;;;;;;;47.50;22.77;;;;;;;8.42;100.00;100004.91;4982630;28;20046;-70
2024/03/05 01:15:09;;;;;;;47.78;22.95;;;;;;;8.43;100.00;100011.91;4973680;28;20496;-72
2024/03/05 01:17:37;;;;;;;44.15;22.83;;;;;;;8.44;100.00;100016.25;4967062;28;20051;-71
2024/03/05 01:20:10;;;;;;;45.30;22.35;;;;;;;8.45;100.00;100017.97;4964765;28;20105;-70
2024/03/05 01:22:41;;;;;;;47.10;22.02;;;;;;;8.47;100.00;100018.75;4957199;28;20519;-71
2024/03/05 01:25:10;;;;;;;47.55;21.98;;;;;;;8.50;100.00;100020.41;4973151;28;20047;-71
2024/03/05 01:27:39;;;;;;;48.93;24.30;;;;;;;8.50;100.00;100015.97;4940638;28;20388;-72
2024/03/05 01:30:11;;;;;;;50.08;23.45;;;;;;;8.54;100.00;100028.09;4965622;28;20155;-72
2024/03/05 01:32:39;;;;;;;46.25;23.75;;;;;;;8.52;100.00;100013.25;4956732;28;20046;-72
2024/03/05 01:35:11;;;;;;;50.70;23.65;;;;;;;8.49;100.00;100019.56;4958986;28;20042;-70
2024/03/05 01:37:41;;;;;;;49.20;22.25;;;;;;;8.53;100.00;100023.75;4946375;28;20063;-71
2024/03/05 01:40:11;;;;;;;51.33;24.25;;;;;;;8.52;100.00;100021.16;4961031;28;20063;-71
2024/03/05 01:42:41;;;;;;;48.33;24.10;;;;;;;8.51;100.00;100016.81;4948196;28;20814;-71
2024/03/05 01:45:10;;;;;;;47.75;24.45;;;;;;;8.49;100.00;100016.91;4947411;28;20055;-72
2024/03/05 01:47:38;;;;;;;51.65;24.45;;;;;;;8.48;100.00;100022.25;4984739;28;21065;-72
2024/03/05 01:50:09;;;;;;;50.17;23.30;;;;;;;8.43;100.00;100020.66;5001004;28;20149;-72
2024/03/05 01:52:37;;;;;;;51.97;24.67;;;;;;;8.42;100.00;100024.22;4972160;28;20053;-71
2024/03/05 01:55:10;;;;;;;51.58;24.55;;;;;;;8.41;100.00;100027.78;4962311;28;20057;-72
2024/03/05 01:57:41;;;;;;;50.65;24.30;;;;;;;8.39;100.00;100028.78;4969108;28;20047;-73
2024/03/05 02:00:11;;;;;;;52.22;24.65;;;;;;;8.41;100.00;100022.50;4971672;28;20042;-72
2024/03/05 02:02:40;;;;;;;52.55;25.13;;;;;;;8.41;100.00;100016.38;4951390;28;20043;-72
2024/03/05 02:05:09;;;;;;;52.55;24.48;;;;;;;8.39;100.00;100026.13;4940964;28;20042;-70
2024/03/05 02:07:37;;;;;;;51.67;24.52;;;;;;;8.35;100.00;100024.56;4942621;28;20047;-69
2024/03/05 02:10:08;;;;;;;49.70;22.35;;;;;;;8.39;100.00;100026.13;4964137;28;20515;-72
2024/03/05 02:12:37;;;;;;;48.47;22.50;;;;;;;8.38;100.00;100027.06;4949842;28;20058;-71
2024/03/05 02:15:12;;;;;;;55.35;24.58;;;;;;;8.37;100.00;100027.97;4939500;28;20047;-71
2024/03/05 02:17:43;;;;;;;51.45;23.90;;;;;;;8.33;100.00;100024.66;4965679;28;20042;-70
2024/03/05 02:20:13;;;;;;;51.22;23.73;;;;;;;8.33;100.00;100029.06;4969432;28;20102;-73
2024/03/05 02:22:46;;;;;;;48.65;23.35;;;;;;;8.31;100.00;100033.50;4983288;28;20093;-71
2024/03/05 02:25:15;;;;;;;54.75;24.50;;;;;;;8.34;100.00;100036.06;4976029;28;20054;-71
2024/03/05 02:27:46;;;;;;;48.88;23.42;;;;;;;8.30;100.00;100032.66;4985188;28;20050;-72
2024/03/05 02:30:15;;;;;;;50.67;23.63;;;;;;;8.30;100.00;100030.03;4972709;28;20045;-71
2024/03/05 02:32:45;;;;;;;51.20;23.17;;;;;;;8.28;100.00;100034.50;4999482;28;20045;-71
2024/03/05 02:35:14;;;;;;;50.38;23.58;;;;;;;8.23;100.00;100032.97;4982529;28;20042;-73
2024/03/05 02:37:48;;;;;;;48.63;23.27;;;;;;;8.26;100.00;100024.94;4972254;28;20051;-71
2024/03/05 02:40:17;;;;;;;48.90;21.77;;;;;;;8.33;100.00;100035.19;4983050;28;20653;-72
2024/03/05 02:42:47;;;;;;;48.60;22.73;;;;;;;8.36;100.00;100034.19;4973316;28;20093;-69
2024/03/05 02:45:15;;;;;;;48.92;22.88;;;;;;;8.33;100.00;100036.97;4969976;28;20051;-72
2024/03/05 02:47:43;;;;;;;52.00;22.90;;;;;;;8.29;100.00;100040.63;4984548;28;20527;-70
2024/03/05 02:50:11;;;;;;;50.55;22.13;;;;;;;8.22;100.00;100034.75;4961364;28;20043;-70
2024/03/05 02:52:42;;;;;;;51.30;23.38;;;;;;;8.20;100.00;100036.59;4966419;28;20057;-71
2024/03/05 02:55:12;;;;;;;;;;;;;;;8.19;100.00;100032.25;4979594;28;20604;-73
2024/03/05 02:57:41;;;;;;;48.38;22.08;;;;;;;8.20;100.00;100027.81;4996711;28;19964;-71
2024/03/05 03:00:18;;;;;;;47.60;21.38;;;;;;;8.16;100.00;100032.41;4975707;28;20038;-71
2024/03/05 03:02:52;;;;;;;47.60;22.67;;;;;;;8.19;100.00;100034.03;4989388;28;20042;-72
2024/03/05 03:05:22;;;;;;;47.58;21.52;;;;;;;8.21;100.00;100043.59;4996906;28;20047;-73
2024/03/05 03:07:50;;;;;;;47.40;22.50;;;;;;;8.22;100.00;100037.38;4975013;28;20061;-73
2024/03/05 03:10:24;;;;;;;49.53;23.25;;;;;;;8.28;100.00;100037.13;4975118;28;20050;-69
2024/03/05 03:12:52;;;;;;;47.17;22.23;;;;;;;8.26;100.00;100033.69;4982884;28;20043;-70
2024/03/05 03:15:24;;;;;;;47.42;21.60;;;;;;;8.24;100.00;100032.91;4963896;28;20045;-70
2024/03/05 03:17:53;;;;;;;46.95;22.02;;;;;;;8.23;100.00;100038.25;4999473;28;20057;-71
2024/03/05 03:20:21;;;;;;;48.00;22.40;;;;;;;8.22;100.00;100033.91;4990559;28;20202;-72
2024/03/05 03:22:49;;;;;;;51.78;23.48;;;;;;;8.23;100.00;100025.06;4977948;28;20106;-72
2024/03/05 03:25:17;;;;;;;50.35;22.60;;;;;;;8.32;100.00;100041.41;4967620;28;20162;-72
2024/03/05 03:27:47;;;;;;;51.40;22.58;;;;;;;8.39;100.00;100034.06;5000498;28;20058;-69
2024/03/05 03:30:19;;;;;;;48.05;22.27;;;;;;;8.42;100.00;100033.94;4962629;28;20043;-71
2024/03/05 03:32:49;;;;;;;50.58;23.65;;;;;;;8.42;100.00;100032.16;4994325;28;20070;-71
2024/03/05 03:35:20;;;;;;;49.00;22.30;;;;;;;8.44;100.00;100030.31;4994675;28;20042;-70
2024/03/05 03:37:48;;;;;;;;;;;;;;;8.47;100.00;100034.59;4975582;28;20054;-72
2024/03/05 03:40:21;;;;;;;48.95;22.00;;;;;;;8.42;100.00;100024.22;4987961;28;19956;-71
2024/03/05 03:42:52;;;;;;;46.47;21.83;;;;;;;8.49;100.00;100043.31;4976419;28;20043;-72
2024/03/05 03:45:21;;;;;;;49.00;21.40;;;;;;;8.49;100.00;100032.75;4982816;28;20046;-72
2024/03/05 03:47:50;;;;;;;47.42;23.15;;;;;;;8.52;100.00;100034.38;4985712;28;20030;-71
2024/03/05 03:50:18;;;;;;;54.33;23.80;;;;;;;8.51;100.00;100025.59;4994095;28;20074;-72
2024/03/05 03:52:46;;;;;;;45.97;21.50;;;;;;;8.53;100.00;100023.75;5003204;28;20070;-71
2024/03/05 03:55:15;;;;;;;48.75;22.48;;;;;;;8.55;100.00;100024.53;4983384;28;20054;-73
2024/03/05 03:57:44;;;;;;;47.92;20.83;;;;;;;8.55;100.00;100024.53;4998433;28;20039;-72
2024/03/05 04:00:18;;;;;;;49.53;22.83;;;;;;;8.48;100.00;100015.19;4984781;28;20117;-72
2024/03/05 04:02:47;;;;;;;44.55;21.67;;;;;;;8.43;100.00;100007.47;4973457;28;20518;-72
2024/03/05 04:05:18;;;;;;;49.00;23.02;;;;;;;8.48;100.00;100022.25;4963951;28;20800;-70
2024/03/05 04:07:48;;;;;;;46.25;21.75;;;;;;;8.42;100.00;100018.09;4971590;28;20050;-70
2024/03/05 04:10:16;;;;;;;47.15;22.55;;;;;;;8.39;100.00;100026.13;4963966;28;20062;-69
2024/03/05 04:12:47;;;;;;;51.63;22.90;;;;;;;8.41;100.00;100035.72;4963484;28;20055;-72
2024/03/05 04:15:18;;;;;;;49.47;22.48;;;;;;;8.40;100.00;100039.25;4971067;28;20050;-72
2024/03/05 04:17:49;;;;;;;46.15;22.42;;;;;;;8.46;100.00;100040.78;4958546;28;20122;-70
2024/03/05 04:20:17;;;;;;;47.55;22.77;;;;;;;8.38;100.00;100027.91;4988040;28;20050;-71
2024/03/05 04:22:49;;;;;;;48.42;22.23;;;;;;;8.53;100.00;100052.78;4985816;28;20043;-72
2024/03/05 04:25:21;;;;;;;49.67;23.25;;;;;;;8.50;100.00;100052.91;4987862;28;20051;-70
2024/03/05 04:27:49;;;;;;;48.47;22.77;;;;;;;8.56;100.00;100057.06;5008632;28;20099;-71
2024/03/05 04:30:19;;;;;;;46.72;22.10;;;;;;;8.56;100.00;100052.66;4988580;28;20085;-70
2024/03/05 04:32:49;;;;;;;43.05;21.65;;;;;;;8.57;100.00;100053.50;4968220;28;20197;-71
2024/03/05 04:35:27;;;;;;;47.83;22.33;;;;;;;8.54;100.00;100054.50;4944889;28;20054;-71
2024/03/05 04:37:55;;;;;;;46.25;22.52;;;;;;;8.48;100.00;100053.91;4960310;28;20047;-72
2024/03/05 04:40:24;;;;;;;43.55;21.30;;;;;;;8.57;100.00;100064.06;4929794;28;20049;-72
2024/03/05 04:42:53;;;;;;;47.97;21.77;;;;;;;8.54;100.00;100062.41;4965788;28;20192;-72
2024/03/05 04:45:21;;;;;;;47.88;22.83;;;;;;;8.51;100.00;100059.03;4958467;28;20045;-70
2024/03/05 04:47:51;;;;;;;45.67;21.73;;;;;;;8.53;100.00;100070.38;4966976;28;20043;-72
2024/03/05 04:50:20;;;;;;;45.03;22.33;;;;;;;8.52;100.00;100076.59;4944138;28;20123;-70
2024/03/05 04:52:48;;;;;;;42.15;21.23;;;;;;;8.48;100.00;100067.97;4976988;28;20482;-72
2024/03/05 04:55:18;;;;;;;48.83;22.63;;;;;;;8.48;100.00;100073.25;4977563;28;20054;-72
2024/03/05 04:57:49;;;;;;;47.92;22.35;;;;;;;8.48;100.00;100077.66;4965080;28;20110;-72
2024/03/05 05:00:23;;;;;;;;;;;;;;;8.51;100.00;100070.44;4959302;28;20055;-71
2024/03/05 05:02:53;;;;;;;51.00;23.40;;;;;;;8.45;100.00;100073.38;4975041;28;19969;-71
2024/03/05 05:05:24;;;;;;;52.90;22.92;;;;;;;8.37;100.00;100078.97;4963809;28;20043;-71
2024/03/05 05:07:57;;;;;;;46.90;22.15;;;;;;;8.27;100.00;100071.50;4968023;28;20051;-71
2024/03/05 05:10:25;;;;;;;50.83;21.77;;;;;;;8.28;100.00;100079.34;4952633;28;20039;-73
2024/03/05 05:12:53;;;;;;;49.50;22.88;;;;;;;8.27;100.00;100080.25;4969506;28;20052;-70
2024/03/05 05:15:21;;;;;;;49.13;23.27;;;;;;;8.21;100.00;100074.38;4978687;28;20053;-71
2024/03/05 05:17:49;;;;;;;50.83;23.27;;;;;;;8.20;100.00;100077.94;4965147;28;20125;-71
2024/03/05 05:20:23;;;;;;;52.00;23.50;;;;;;;8.15;100.00;100074.66;4966186;28;20070;-72
2024/03/05 05:22:53;;;;;;;49.85;23.60;;;;;;;8.13;100.00;100074.72;4978259;28;20053;-70
2024/03/05 05:25:22;;;;;;;46.67;22.38;;;;;;;8.08;100.00;100077.53;4929479;28;20050;-71
2024/03/05 05:27:50;;;;;;;47.60;23.02;;;;;;;7.98;100.00;100065.66;4949941;28;20075;-72
2024/03/05 05:30:20;;;;;;;46.67;22.40;;;;;;;7.97;100.00;100066.59;4948478;28;20058;-72
2024/03/05 05:32:48;;;;;;;49.78;22.40;;;;;;;7.99;100.00;100075.28;4947568;28;20136;-72
2024/03/05 05:35:18;;;;;;;52.75;23.20;;;;;;;7.98;100.00;100070.94;4956668;28;20054;-72
2024/03/05 05:37:47;;;;;;;48.28;23.55;;;;;;;7.98;100.00;100081.50;4975106;28;20066;-71
2024/03/05 05:40:17;;;;;;;52.90;23.23;;;;;;;7.96;100.00;100080.69;4991950;28;20059;-71
2024/03/05 05:42:51;;;;;;;49.88;22.88;;;;;;;7.99;100.00;100083.22;4985729;28;20043;-74
2024/03/05 05:45:21;;;;;;;;;;;;;;;8.00;100.00;100079.66;4978561;28;20126;-71
2024/03/05 05:47:53;;;;;;;53.55;23.63;;;;;;;7.98;100.00;100086.75;4999380;28;19937;-70
2024/03/05 05:50:28;;;;;;;50.88;23.95;;;;;;;7.96;100.00;100085.97;4979422;28;20044;-72
2024/03/05 05:53:03;;;;;;;53.72;23.88;;;;;;;7.84;100.00;100072.44;4956059;28;20051;-72
2024/03/05 05:55:33;;;;;;;51.67;23.15;;;;;;;7.91;100.00;100087.91;4973396;28;20051;-71
2024/03/05 05:58:03;;;;;;;53.80;24.02;;;;;;;7.75;100.00;100066.59;4948383;28;20051;-72
2024/03/05 06:00:44;;;;;;;58.90;23.88;;;;;;;7.89;100.00;100096.81;4943387;28;20497;-72
2024/03/05 06:03:14;;;;;;;48.78;22.98;;;;;;;7.91;100.00;100090.56;4944880;28;20047;-72
2024/03/05 06:05:43;;;;;;;56.10;23.77;;;;;;;7.97;100.00;100089.47;4942867;28;20174;-71
2024/03/05 06:08:14;;;;;;;56.90;24.52;;;;;;;8.00;100.00;100084.94;4967170;28;20057;-73
2024/03/05 06:10:42;;;;;;;53.58;23.98;;;;;;;7.94;100.00;100090.44;4977454;28;20419;-72
2024/03/05 06:13:11;;;;;;;55.40;25.25;;;;;;;7.93;100.00;100088.72;4968624;28;20526;-69
2024/03/05 06:15:40;;;;;;;52.95;24.00;;;;;;;7.92;100.00;100094.06;4977895;28;20051;-71
2024/03/05 06:18:08;;;;;;;55.08;24.98;;;;;;;7.91;100.00;100101.09;4963847;28;21316;-72
2024/03/05 06:20:36;;;;;;;56.38;25.15;;;;;;;7.91;100.00;100103.75;4981860;28;20362;-72
2024/03/05 06:23:06;;;;;;;57.10;26.33;;;;;;;7.90;100.00;100103.81;4981412;28;20046;-71
2024/03/05 06:25:36;;;;;;;53.65;25.00;;;;;;;7.90;100.00;100098.53;4990950;28;20047;-71
2024/03/05 06:28:05;;;;;;;56.95;25.67;;;;;;;7.90;100.00;100098.53;4966765;28;20045;-72
2024/03/05 06:30:33;;;;;;;56.35;25.73;;;;;;;7.90;100.00;100098.53;4966321;28;20510;-70
2024/03/05 06:33:01;;;;;;;57.78;25.77;;;;;;;7.92;100.00;100107.22;4966491;28;20130;-72
2024/03/05 06:35:31;;;;;;;59.25;24.73;;;;;;;7.95;100.00;100112.38;4960872;28;20051;-70
2024/03/05 06:38:00;;;;;;;53.80;24.55;;;;;;;7.95;100.00;100107.97;4968526;28;20133;-70
2024/03/05 06:40:31;;;;;;;55.60;25.48;;;;;;;7.96;100.00;100109.69;4968955;28;20070;-72
2024/03/05 06:43:12;;;;;;;56.05;26.02;;;;;;;7.94;100.00;100108.91;4982119;28;20035;-72
2024/03/05 06:45:42;;;;;;;55.15;25.80;;;;;;;7.89;100.00;100110.84;4991194;28;20728;-72
2024/03/05 06:48:12;;;;;;;55.72;24.70;;;;;;;7.91;100.00;100111.66;4986173;28;20450;-71
2024/03/05 06:50:51;;;;;;;59.10;25.75;;;;;;;7.95;100.00;100120.31;4998778;28;20043;-71
2024/03/05 06:58:58;;;;;;;54.17;25.27;;;;;;;8.05;100.00;100119.00;4988617;28;20047;-72
2024/03/05 07:01:34;;;;;;;55.53;25.02;;;;;;;8.09;100.00;100124.09;4991492;28;20050;-71
2024/03/05 07:04:05;;;;;;;53.95;25.05;;;;;;;8.07;100.00;100114.53;4995818;28;20102;-71
2024/03/05 07:06:37;;;;;;;55.08;25.05;;;;;;;8.15;100.00;100132.69;4963876;28;20062;-71
2024/03/05 07:09:06;;;;;;;57.90;26.73;;;;;;;8.15;100.00;100130.03;4975274;28;20053;-71
2024/03/05 07:11:36;;;;;;;57.65;25.15;;;;;;;8.13;100.00;100124.81;4977436;28;20055;-71
2024/03/05 07:14:07;;;;;;;55.58;25.15;;;;;;;8.19;100.00;100132.47;4966630;28;20103;-71
2024/03/05 07:16:35;;;;;;;56.17;25.75;;;;;;;8.19;100.00;100129.84;4983897;28;20084;-69
2024/03/05 07:19:03;;;;;;;52.33;25.02;;;;;;;8.20;100.00;100135.97;4995994;28;20108;-69
2024/03/05 07:21:31;;;;;;;56.78;25.48;;;;;;;8.16;100.00;100126.47;4996414;28;20050;-69
2024/03/05 07:24:01;;;;;;;54.33;24.58;;;;;;;8.19;100.00;100135.09;5004743;28;20043;-71
2024/03/05 07:26:31;;;;;;;53.95;25.17;;;;;;;8.25;100.00;100137.50;4992366;28;20062;-72
2024/03/05 07:29:00;;;;;;;50.90;23.77;;;;;;;8.27;100.00;100142.72;4974224;28;20047;-72
2024/03/05 07:31:30;;;;;;;62.42;25.50;;;;;;;8.18;100.00;100116.72;4994582;28;20038;-71
2024/03/05 07:33:58;;;;;;;56.67;25.10;;;;;;;8.11;100.00;100113.47;4951593;28;20081;-72
2024/03/05 07:36:33;;;;;;;53.55;24.10;;;;;;;8.17;100.00;100118.50;4972302;28;20291;-71
2024/03/05 07:39:05;;;;;;;56.65;25.02;;;;;;;8.25;100.00;100141.91;4949368;28;20054;-71
2024/03/05 07:41:36;;;;;;;53.15;23.88;;;;;;;8.26;100.00;100139.22;4977711;28;20050;-70
2024/03/05 07:44:06;;;;;;;58.88;25.77;;;;;;;8.28;100.00;100136.53;4984446;28;20117;-70
2024/03/05 07:46:37;;;;;;;57.55;25.92;;;;;;;8.30;100.00;100139.97;4986606;28;20065;-71
2024/03/05 07:49:06;;;;;;;55.88;24.88;;;;;;;8.32;100.00;100132.88;4988430;28;20050;-72
2024/03/05 07:51:38;;;;;;;57.58;25.35;;;;;;;8.35;100.00;100136.22;4981305;28;20474;-71
2024/03/05 07:54:16;;;;;;;58.17;26.40;;;;;;;8.29;100.00;100117.13;4967250;28;20450;-70
2024/03/05 07:56:46;;;;;;;55.70;24.55;;;;;;;8.36;100.00;100135.28;4979762;28;20043;-72
2024/03/05 07:59:17;;;;;;;54.92;24.38;;;;;;;8.39;100.00;100129.03;4985926;28;20935;-72
2024/03/05 08:01:47;;;;;;;55.00;25.83;;;;;;;8.41;100.00;100128.06;4973063;28;20070;-71
2024/03/05 08:04:15;;;;;;;55.45;24.77;;;;;;;8.46;100.00;100130.50;4966669;28;20070;-72
2024/03/05 08:06:43;;;;;;;57.78;25.55;;;;;;;8.56;100.00;100131.81;4973305;28;20058;-71
2024/03/05 08:09:13;;;;;;;53.38;24.40;;;;;;;8.59;100.00;100128.19;4966087;28;20051;-72
2024/03/05 08:11:43;;;;;;;;;;;;;;;8.72;100.00;100130.22;4977266;28;20101;-72
2024/03/05 08:14:11;;;;;;;55.53;24.63;;;;;;;8.84;100.00;100130.63;4965657;28;20086;-72
2024/03/05 08:16:39;;;;;;;52.55;24.90;;;;;;;8.91;100.00;100137.34;4977718;28;20080;-71
2024/03/05 08:19:14;;;;;;;58.30;25.88;;;;;;;8.98;100.00;100134.34;4961608;28;20066;-70
2024/03/05 08:21:47;;;;;;;55.78;24.88;;;;;;;9.06;100.00;100140.16;4957072;28;20129;-71
2024/03/05 08:24:15;;;;;;;51.45;24.70;;;;;;;9.17;100.00;100138.81;4974177;28;20451;-71
2024/03/05 08:26:43;;;;;;;54.25;26.05;;;;;;;9.17;100.00;100144.97;4957960;28;20046;-71
2024/03/05 08:29:11;;;;;;;58.28;25.52;;;;;;;9.12;100.00;100146.97;4959760;28;20502;-71
2024/03/05 08:31:40;;;;;;;55.22;24.80;;;;;;;9.10;100.00;100141.75;4983954;28;20049;-71
2024/03/05 08:34:08;;;;;;;51.50;23.77;;;;;;;9.11;100.00;100139.97;4989582;28;20038;-71
2024/03/05 08:36:39;;;;;;;50.28;24.13;;;;;;;9.16;100.00;100140.59;4966254;28;20110;-71
2024/03/05 08:39:17;;;;;;;50.17;22.65;;;;;;;9.07;100.00;100133.97;4968561;28;20047;-71
2024/03/05 08:41:46;;;;;;;54.47;24.50;;;;;;;9.09;100.00;100133.91;4968814;28;20181;-70
2024/03/05 08:44:18;;;;;;;56.47;24.05;;;;;;;9.08;100.00;100135.69;4968514;28;20051;-71
2024/03/05 08:46:48;;;;;;;53.28;24.15;;;;;;;9.08;100.00;100137.47;4987007;28;20053;-71
2024/03/05 08:49:16;;;;;;;57.42;25.10;;;;;;;9.08;100.00;100143.59;4986423;28;20047;-72
2024/03/05 08:51:49;;;;;;;53.95;24.23;;;;;;;9.07;100.00;100146.31;4966165;28;20047;-70
2024/03/05 08:54:18;;;;;;;56.60;24.30;;;;;;;9.04;100.00;100149.09;4963475;28;20070;-71
2024/03/05 08:56:46;;;;;;;48.70;23.38;;;;;;;9.05;100.00;100145.53;4971163;28;20118;-71
2024/03/05 08:59:20;;;;;;;51.25;23.50;;;;;;;9.11;100.00;100145.25;4948898;28;20047;-71
2024/03/05 09:01:50;;;;;;;48.45;23.05;;;;;;;9.09;100.00;100132.13;4951008;28;20061;-72
2024/03/05 09:04:19;;;;;;;;;;;;;;;9.28;100.00;100142.72;4934923;28;20068;-73
2024/03/05 09:06:50;;;;;;;53.60;23.92;;;;;;;9.36;100.00;100147.63;4972058;28;20049;-71
2024/03/05 09:09:19;;;;;;;52.33;24.20;;;;;;;9.37;100.00;100152.84;4965499;28;20119;-71
2024/03/05 09:11:48;;;;;;;52.97;24.33;;;;;;;9.34;100.00;100150.34;4951453;28;20139;-72
2024/03/05 09:14:16;;;;;;;52.33;24.23;;;;;;;9.26;100.00;100136.63;4971190;28;20046;-72
2024/03/05 09:16:45;;;;;;;52.17;24.98;;;;;;;9.28;100.00;100147.13;4968111;28;20042;-71
2024/03/05 09:19:16;;;;;;;57.17;26.02;;;;;;;9.29;100.00;100146.19;4970431;28;20760;-72
2024/03/05 09:21:46;;;;;;;57.45;26.08;;;;;;;9.37;100.00;100157.28;4982891;28;20070;-71
2024/03/05 09:24:16;;;;;;;52.45;25.05;;;;;;;9.44;100.00;100156.09;4969102;28;20492;-71
2024/03/05 09:26:44;;;;;;;56.28;25.75;;;;;;;9.45;100.00;100150.69;4984542;28;20046;-69
2024/03/05 09:29:14;;;;;;;51.83;24.58;;;;;;;9.54;100.00;100152.06;4968329;28;20054;-74
2024/03/05 09:31:46;;;;;;;51.35;25.13;;;;;;;9.63;100.00;100154.28;4969143;28;20054;-71
2024/03/05 09:34:14;;;;;;;57.70;25.75;;;;;;;9.68;100.00;100160.22;4973014;28;20093;-70
2024/03/05 09:36:42;;;;;;;56.92;25.70;;;;;;;9.59;100.00;100151.88;4981284;28;20074;-71
2024/03/05 09:39:10;;;;;;;57.95;25.83;;;;;;;9.54;100.00;100151.22;4964729;28;20038;-71
2024/03/05 09:41:42;;;;;;;57.72;25.30;;;;;;;9.45;100.00;100155.13;4964370;28;20053;-71
2024/03/05 09:44:10;;;;;;;54.60;24.95;;;;;;;9.56;100.00;100154.66;4965527;28;20038;-71
2024/03/05 09:46:39;;;;;;;61.55;25.33;;;;;;;9.64;100.00;100161.28;4978350;28;20058;-69
2024/03/05 09:49:10;;;;;;;54.70;25.52;;;;;;;9.57;100.00;100154.59;4965209;28;20055;-69
2024/03/05 09:51:50;;;;;;;55.35;25.77;;;;;;;9.65;100.00;100167.44;4949322;28;20055;-71
2024/03/05 09:54:21;;;;;;;57.50;25.92;;;;;;;9.41;100.00;100151.78;4965683;28;20138;-70
2024/03/05 09:56:54;;;;;;;56.13;25.88;;;;;;;9.42;100.00;100172.00;4982212;28;20053;-70
2024/03/05 09:59:23;;;;;;;60.47;26.40;;;;;;;9.33;100.00;100175.06;4959130;28;20078;-72
2024/03/05 10:01:54;;;;;;;56.97;26.25;;;;;;;9.22;100.00;100173.81;4970194;28;20053;-71
2024/03/05 10:04:26;;;;;;;57.72;27.20;;;;;;;9.20;100.00;100180.97;4968114;28;20133;-71
2024/03/05 10:06:55;;;;;;;57.08;26.00;;;;;;;9.28;100.00;100177.06;4996216;28;20146;-68
2024/03/05 10:09:27;;;;;;;63.58;27.15;;;;;;;9.36;100.00;100176.69;4994497;28;20043;-72
2024/03/05 10:11:57;;;;;;;57.40;26.83;;;;;;;9.30;100.00;100179.59;4981201;28;20046;-71
2024/03/05 10:14:27;;;;;;;57.55;26.58;;;;;;;9.25;100.00;100184.25;4982449;28;20045;-70
2024/03/05 10:17:02;;;;;;;61.10;27.77;;;;;;;9.16;100.00;100185.50;4968757;28;20070;-71
2024/03/05 10:19:43;;;;;;;63.75;27.40;;;;;;;9.06;100.00;100179.78;4980289;28;20059;-72
2024/03/05 10:22:11;;;;;;;58.67;27.75;;;;;;;9.10;100.00;100189.31;4969113;28;20142;-73
2024/03/05 10:24:39;;;;;;;60.95;27.45;;;;;;;9.05;100.00;100193.91;4963476;28;20047;-73
2024/03/05 10:27:11;;;;;;;60.33;26.35;;;;;;;9.05;100.00;100186.00;4969835;28;20047;-72
2024/03/05 10:29:40;;;;;;;56.55;26.52;;;;;;;9.08;100.00;100188.50;4963729;28;20057;-71
2024/03/05 10:32:11;;;;;;;64.10;28.88;;;;;;;9.07;100.00;100184.16;4984594;28;21263;-70
2024/03/05 10:34:45;;;;;;;63.72;28.67;;;;;;;9.04;100.00;100180.78;4967428;28;20487;-73
2024/03/05 10:37:17;;;;;;;63.60;28.00;;;;;;;9.08;100.00;100183.22;4955641;28;20198;-70
2024/03/05 10:39:45;;;;;;;62.65;28.15;;;;;;;9.09;100.00;100173.53;4978201;28;20054;-72
2024/03/05 10:42:15;;;;;;;62.67;28.30;;;;;;;9.11;100.00;100167.25;4966767;28;20054;-71
2024/03/05 10:44:46;;;;;;;58.63;26.73;;;;;;;9.38;100.00;100181.00;4964134;28;20051;-72
2024/03/05 10:47:16;;;;;;;56.35;25.50;;;;;;;9.60;100.00;100180.03;4946608;28;20726;-71
2024/03/05 10:49:46;;;;;;;66.50;26.75;;;;;;;9.78;100.00;100179.13;4981340;28;20127;-71
2024/03/05 10:52:15;;;;;;;61.95;28.00;;;;;;;9.97;100.00;100185.28;4967319;28;20073;-72
2024/03/05 10:54:46;;;;;;;57.20;27.50;;;;;;;10.09;100.00;100184.69;4970848;28;20073;-72
2024/03/05 10:57:18;;;;;;;61.50;28.98;;;;;;;9.92;100.00;100160.81;4949831;28;20043;-72
2024/03/05 10:59:52;;;;;;;58.55;27.92;;;;;;;10.04;100.00;100180.56;4975316;28;20045;-72
2024/03/05 11:02:27;;;;;;;60.20;27.27;;;;;;;10.06;100.00;100189.28;4967850;28;20066;-71
2024/03/05 11:05:00;;;;;;;59.70;27.25;;;;;;;10.11;100.00;100184.59;4965202;28;21796;-72
2024/03/05 11:07:29;;;;;;;55.75;27.08;;;;;;;10.18;100.00;100191.34;4960283;28;20066;-71
2024/03/05 11:09:59;;;;;;;55.35;25.90;;;;;;;10.27;100.00;100190.03;4975269;28;20032;-70
2024/03/05 11:12:30;;;;;;;56.47;26.75;;;;;;;10.30;100.00;100193.41;4975965;28;20043;-72
2024/03/05 11:14:58;;;;;;;;;;;;;;;10.25;100.00;100190.13;4972774;28;20515;-73
2024/03/05 11:17:28;;;;;;;57.65;27.20;;;;;;;10.15;100.00;100187.03;4960246;28;20028;-72
2024/03/05 11:19:59;;;;;;;60.70;27.95;;;;;;;10.09;100.00;100194.41;4962781;28;20106;-71
2024/03/05 11:22:29;;;;;;;60.83;28.15;;;;;;;9.86;100.00;100171.72;4981003;28;20661;-73
2024/03/05 11:25:01;;;;;;;59.47;28.52;;;;;;;9.77;100.00;100177.41;4967734;28;20046;-71
2024/03/05 11:27:34;;;;;;;58.95;28.58;;;;;;;9.71;100.00;100188.31;4958355;28;20098;-70
2024/03/05 11:30:18;;;;;;;59.47;28.98;;;;;;;9.58;100.00;100168.66;4968438;28;20049;-72